Time;durP1;ratioP1;P1;durP2;ratioP2;P2;SDS_P1;SDS_P2;PMS_P1;PMS_P2;Temp;Humidity;BMP_temperature;BMP_pressure;BME280_temperature;BME280_humidity;BME280_pressure;Samples;Min_cycle;Max_cycle;Signal;HPM_P1;HPM_P2
2022/09/22 00:02:10;;;;;;;5.90;3.65;;;8.30;99.90;;;;;;4796939;29;20046;-94
2022/09/22 00:04:36;;;;;;;7.20;3.20;;;8.10;99.90;;;;;;4795678;29;20475;-96
2022/09/22 00:07:02;;;;;;;8.00;4.03;;;8.10;99.90;;;;;;4795238;29;20125;-95
2022/09/22 00:09:28;;;;;;;5.72;3.95;;;8.10;99.90;;;;;;4794590;29;20080;-95
2022/09/22 00:12:31;;;;;;;5.72;3.53;;;8.00;99.90;;;;;;4779877;29;20077;-96
2022/09/22 00:14:57;;;;;;;6.40;3.25;;;8.10;99.90;;;;;;4808649;29;20084;-95
2022/09/22 00:17:23;;;;;;;7.05;3.05;;;8.00;99.90;;;;;;4809990;29;20042;-95
2022/09/22 00:19:49;;;;;;;4.57;2.90;;;8.00;99.90;;;;;;4811876;29;20054;-95
2022/09/22 00:22:14;;;;;;;4.15;2.60;;;8.10;99.90;;;;;;4794668;29;20047;-95
2022/09/22 00:25:00;;;;;;;6.35;2.80;;;8.10;99.90;;;;;;4791720;29;20064;-95
2022/09/22 00:27:25;;;;;;;6.70;3.05;;;8.10;99.90;;;;;;4792112;29;20054;-95
2022/09/22 00:29:51;;;;;;;8.13;3.22;;;8.10;99.90;;;;;;4779644;29;20042;-96
2022/09/22 00:32:17;;;;;;;7.00;3.58;;;8.10;99.90;;;;;;4779943;29;20059;-96
2022/09/22 00:34:45;;;;;;;8.52;3.30;;;8.10;99.90;;;;;;4790621;29;20050;-95
2022/09/22 00:37:11;;;;;;;4.78;3.10;;;8.10;99.90;;;;;;4790395;29;20046;-96
2022/09/22 00:39:37;;;;;;;6.78;3.10;;;8.00;99.90;;;;;;4785698;29;20409;-96
2022/09/22 00:42:06;;;;;;;7.22;3.65;;;8.00;99.90;;;;;;4788766;29;20043;-96
2022/09/22 00:44:42;;;;;;;6.22;3.08;;;7.90;99.90;;;;;;4816266;29;20149;-95
2022/09/22 00:47:34;;;;;;;7.13;3.47;;;8.00;99.90;;;;;;4794476;29;20097;-96
2022/09/22 00:50:37;;;;;;;6.47;2.92;;;8.00;99.90;;;;;;4792170;29;20406;-95
2022/09/22 00:53:10;;;;;;;8.07;3.40;;;8.00;99.90;;;;;;4806693;29;20050;-96
2022/09/22 00:55:56;;;;;;;5.82;3.47;;;8.00;99.90;;;;;;4806921;29;20432;-96
2022/09/22 00:58:42;;;;;;;7.50;3.35;;;7.90;99.90;;;;;;4823293;29;20057;-96
2022/09/22 01:01:11;;;;;;;6.22;3.20;;;7.90;99.90;;;;;;4816064;29;20046;-96
2022/09/22 01:03:38;;;;;;;6.25;3.38;;;7.90;99.90;;;;;;4784672;29;20386;-95
2022/09/22 01:06:11;;;;;;;7.47;3.60;;;7.80;99.90;;;;;;4797383;29;20103;-96
2022/09/22 01:09:16;;;;;;;7.32;3.40;;;7.80;99.90;;;;;;4794670;29;20066;-95
2022/09/22 01:11:52;;;;;;;;;;;;;;;;;;;;;
2022/09/22 01:14:45;;;;;;;6.40;3.55;;;7.70;99.90;;;;;;4817218;29;20057;-96
2022/09/22 01:17:41;;;;;;;6.28;3.80;;;7.70;99.90;;;;;;4796232;29;20082;-96
2022/09/22 01:20:26;;;;;;;8.43;4.18;;;7.70;99.90;;;;;;4814092;29;20441;-96
2022/09/22 01:26:23;;;;;;;8.25;4.03;;;7.70;99.90;;;;;;4805649;29;20058;-96
2022/09/22 01:29:21;;;;;;;6.47;3.00;;;7.60;99.90;;;;;;4798854;29;20054;-94
2022/09/22 01:31:59;;;;;;;6.53;3.42;;;7.60;99.90;;;;;;4794422;29;20054;-96
2022/09/22 01:34:46;;;;;;;7.80;3.65;;;7.60;99.90;;;;;;4803993;29;20084;-95
2022/09/22 01:37:16;;;;;;;6.57;4.10;;;7.50;99.90;;;;;;4797875;29;20050;-95
2022/09/22 01:40:08;;;;;;;7.10;3.90;;;7.50;99.90;;;;;;4798196;29;20042;-96
2022/09/22 01:42:51;;;;;;;9.95;4.28;;;7.50;99.90;;;;;;4798086;29;20085;-94
2022/09/22 01:45:28;;;;;;;7.43;3.50;;;7.50;99.90;;;;;;4813520;29;20042;-95
2022/09/22 01:48:07;;;;;;;7.25;3.60;;;7.50;99.90;;;;;;4794182;29;20070;-96
2022/09/22 01:50:55;;;;;;;5.43;3.20;;;7.60;99.90;;;;;;4814340;29;20111;-95
2022/09/22 01:53:25;;;;;;;7.60;3.05;;;7.50;99.90;;;;;;4799336;29;20047;-95
2022/09/22 01:55:56;;;;;;;5.80;3.38;;;7.40;99.90;;;;;;4797467;29;20085;-95
2022/09/22 01:58:31;;;;;;;10.65;3.55;;;7.50;99.90;;;;;;4790649;29;20051;-96
2022/09/22 02:01:17;;;;;;;9.77;2.90;;;7.40;99.90;;;;;;4792625;29;20052;-95
2022/09/22 02:07:31;;;;;;;9.02;3.03;;;7.30;99.90;;;;;;4832535;29;20133;-96
2022/09/22 02:10:46;;;;;;;5.53;2.80;;;7.40;99.90;;;;;;4797984;29;20061;-96
2022/09/22 02:13:13;;;;;;;7.05;2.90;;;7.30;99.90;;;;;;4813998;29;20046;-96
2022/09/22 02:18:32;;;;;;;6.85;3.30;;;7.20;99.90;;;;;;4814974;29;20050;-96
2022/09/22 02:21:18;;;;;;;8.02;3.45;;;7.20;99.90;;;;;;4804888;29;20409;-96
2022/09/22 02:23:45;;;;;;;6.38;2.90;;;7.20;99.90;;;;;;4798048;29;20088;-96
2022/09/22 02:26:14;;;;;;;6.53;3.22;;;7.20;99.90;;;;;;4798930;29;20042;-95
2022/09/22 02:28:42;;;;;;;12.45;3.60;;;7.20;99.90;;;;;;4794308;29;20047;-96
2022/09/22 02:31:10;;;;;;;7.40;3.30;;;7.20;99.90;;;;;;4793343;29;20516;-96
2022/09/22 02:33:39;;;;;;;7.47;2.83;;;7.10;99.90;;;;;;4810435;29;20430;-96
2022/09/22 02:36:20;;;;;;;5.65;3.25;;;7.00;99.90;;;;;;4795208;29;20514;-95
2022/09/22 02:42:15;;;;;;;6.05;3.58;;;7.00;99.90;;;;;;4815898;29;20057;-96
2022/09/22 02:45:20;;;;;;;5.85;3.15;;;7.00;99.90;;;;;;4796731;29;20089;-96
2022/09/22 02:48:25;;;;;;;6.25;3.75;;;7.00;99.90;;;;;;4813249;29;20046;-96
2022/09/22 02:50:53;;;;;;;5.72;3.75;;;7.00;99.90;;;;;;4808653;29;20057;-96
2022/09/22 02:53:19;;;;;;;7.32;3.08;;;6.90;99.90;;;;;;4805933;29;20450;-96
2022/09/22 02:56:07;;;;;;;7.28;3.85;;;6.80;99.90;;;;;;4785295;29;20137;-96
2022/09/22 02:58:33;;;;;;;8.82;4.13;;;6.90;99.90;;;;;;4807846;29;20119;-96
2022/09/22 03:00:59;;;;;;;7.00;3.83;;;6.90;99.90;;;;;;4781110;29;20054;-95
2022/09/22 03:03:25;;;;;;;8.90;4.45;;;6.80;99.90;;;;;;4788474;29;20041;-96
2022/09/22 03:09:16;;;;;;;6.47;4.03;;;6.80;99.90;;;;;;4830869;29;20111;-96
2022/09/22 03:12:20;;;;;;;7.00;4.18;;;6.80;99.90;;;;;;4801111;29;20046;-96
2022/09/22 03:14:49;;;;;;;7.35;3.90;;;6.80;99.90;;;;;;4820590;29;20050;-96
2022/09/22 03:17:15;;;;;;;8.77;4.20;;;6.70;99.90;;;;;;4797305;29;20046;-96
2022/09/22 03:19:42;;;;;;;6.88;3.92;;;6.80;99.90;;;;;;4800357;29;20079;-96
2022/09/22 03:22:08;;;;;;;6.95;3.40;;;6.80;99.90;;;;;;4779532;29;20050;-96
2022/09/22 03:24:49;;;;;;;7.45;3.10;;;6.80;99.90;;;;;;4787426;29;20042;-96
2022/09/22 03:27:15;;;;;;;6.70;2.72;;;6.70;99.90;;;;;;4806434;29;20051;-94
2022/09/22 03:30:02;;;;;;;5.95;3.17;;;6.80;99.90;;;;;;4787357;29;20070;-96
2022/09/22 03:32:29;;;;;;;6.95;3.30;;;6.70;99.90;;;;;;4809075;29;20203;-94
2022/09/22 03:35:33;;;;;;;6.57;2.67;;;6.70;99.90;;;;;;4796640;29;20137;-96
2022/09/22 03:38:02;;;;;;;5.88;2.75;;;6.70;99.90;;;;;;4812399;29;20975;-96
2022/09/22 03:40:51;;;;;;;5.28;3.00;;;6.60;99.90;;;;;;4799646;29;20088;-96
2022/09/22 03:43:17;;;;;;;6.40;3.85;;;6.60;99.90;;;;;;4811023;29;20054;-96
2022/09/22 03:45:46;;;;;;;8.00;4.32;;;6.70;99.90;;;;;;4784506;29;20046;-96
2022/09/22 03:51:53;;;;;;;6.10;4.78;;;6.70;99.90;;;;;;4823461;29;20040;-96
2022/09/22 03:54:20;;;;;;;8.88;4.90;;;6.60;99.90;;;;;;4788039;29;20823;-96
2022/09/22 03:57:22;;;;;;;6.50;4.57;;;6.60;99.90;;;;;;4798039;29;20058;-95
2022/09/22 03:59:51;;;;;;;7.47;4.60;;;6.70;99.90;;;;;;4817423;29;20069;-95
2022/09/22 04:02:17;;;;;;;7.55;4.80;;;6.70;99.90;;;;;;4793852;29;20058;-96
2022/09/22 04:04:43;;;;;;;7.78;5.75;;;6.70;99.90;;;;;;4783537;29;20313;-96
2022/09/22 04:07:09;;;;;;;9.02;7.50;;;6.60;99.90;;;;;;4783387;29;20050;-96
2022/09/22 04:09:35;;;;;;;7.75;5.10;;;6.70;99.90;;;;;;4785498;29;20134;-96
2022/09/22 04:12:01;;;;;;;7.75;5.88;;;6.60;99.90;;;;;;4798176;29;20920;-96
2022/09/22 04:14:30;;;;;;;13.65;10.50;;;6.60;99.90;;;;;;4795643;29;20046;-96
2022/09/22 04:16:59;;;;;;;10.43;8.27;;;6.60;99.90;;;;;;4778677;29;20042;-96
2022/09/22 04:19:25;;;;;;;7.55;6.55;;;6.60;99.90;;;;;;4796615;29;20137;-96
2022/09/22 04:21:52;;;;;;;7.03;6.28;;;6.50;99.90;;;;;;4781149;29;20046;-96
2022/09/22 04:24:17;;;;;;;7.47;6.40;;;6.50;99.90;;;;;;4811481;29;20523;-96
2022/09/22 04:26:43;;;;;;;8.90;7.00;;;6.50;99.90;;;;;;4776082;29;20078;-96
2022/09/22 04:29:09;;;;;;;8.02;7.20;;;6.50;99.90;;;;;;4809335;29;20042;-96
2022/09/22 04:31:35;;;;;;;10.75;7.57;;;6.50;99.90;;;;;;4783601;29;20124;-96
2022/09/22 04:34:01;;;;;;;10.48;7.63;;;6.40;99.90;;;;;;4809601;29;20557;-96
2022/09/22 04:36:30;;;;;;;9.27;7.25;;;6.60;99.90;;;;;;4800243;29;20059;-96
2022/09/22 04:38:56;;;;;;;10.43;8.02;;;6.50;99.90;;;;;;4805835;29;20500;-96
2022/09/22 04:41:22;;;;;;;16.95;12.75;;;6.50;99.90;;;;;;4790933;29;20049;-96
2022/09/22 04:43:48;;;;;;;9.80;8.73;;;6.40;99.90;;;;;;4815105;29;20073;-96
2022/09/22 04:46:13;;;;;;;8.82;7.93;;;6.40;99.90;;;;;;4801644;29;20049;-96
2022/09/22 04:48:39;;;;;;;11.07;9.98;;;6.30;99.90;;;;;;4786361;29;20102;-96
2022/09/22 04:51:05;;;;;;;13.80;10.57;;;6.30;99.90;;;;;;4785823;29;20114;-96
2022/09/22 04:53:31;;;;;;;9.60;8.68;;;6.40;99.90;;;;;;4815550;29;20054;-96
2022/09/22 04:55:57;;;;;;;10.02;8.10;;;6.40;99.90;;;;;;4801347;29;20093;-96
2022/09/22 04:59:05;;;;;;;9.40;8.10;;;6.50;99.90;;;;;;4788076;29;20142;-96
2022/09/22 05:01:53;;;;;;;11.18;8.18;;;6.40;99.90;;;;;;4803527;29;20320;-96
2022/09/22 05:04:19;;;;;;;8.52;7.47;;;6.30;99.90;;;;;;4802748;29;20054;-96
2022/09/22 05:06:45;;;;;;;17.88;15.38;;;6.30;99.90;;;;;;4777317;29;20043;-96
2022/09/22 05:09:11;;;;;;;15.45;13.38;;;6.30;99.90;;;;;;4802406;29;20088;-96
2022/09/22 05:11:41;;;;;;;12.10;9.82;;;6.20;99.90;;;;;;4814252;29;20054;-96
2022/09/22 05:14:06;;;;;;;11.35;10.07;;;6.20;99.90;;;;;;4825025;29;20078;-96
2022/09/22 05:16:32;;;;;;;18.83;16.83;;;6.20;99.90;;;;;;4819205;29;20142;-96
2022/09/22 05:19:00;;;;;;;16.58;14.95;;;6.20;99.90;;;;;;4788325;29;20098;-95
2022/09/22 05:21:31;;;;;;;15.20;13.63;;;6.10;99.90;;;;;;4804369;29;20486;-96
2022/09/22 05:24:26;;;;;;;19.08;17.17;;;6.00;99.90;;;;;;4784397;29;20046;-96
2022/09/22 05:26:52;;;;;;;13.60;12.30;;;6.00;99.90;;;;;;4821693;29;20050;-96
2022/09/22 05:29:19;;;;;;;20.95;18.83;;;5.90;99.90;;;;;;4781760;29;20053;-94
2022/09/22 05:31:45;;;;;;;11.27;10.25;;;5.90;99.90;;;;;;4828555;29;20521;-96
2022/09/22 05:34:11;;;;;;;12.48;11.18;;;5.90;99.90;;;;;;4798882;29;20043;-96
2022/09/22 05:36:37;;;;;;;14.50;13.20;;;5.90;99.90;;;;;;4797010;29;20051;-96
2022/09/22 05:39:03;;;;;;;15.07;13.77;;;6.00;99.90;;;;;;4793490;29;20720;-96
2022/09/22 05:41:29;;;;;;;17.13;15.43;;;5.90;99.90;;;;;;4812803;29;20046;-95
2022/09/22 05:43:55;;;;;;;16.50;15.13;;;6.00;99.90;;;;;;4799597;29;20050;-93
2022/09/22 05:46:21;;;;;;;18.23;16.52;;;6.10;99.90;;;;;;4824435;29;20544;-92
2022/09/22 05:48:47;;;;;;;18.13;16.25;;;6.10;99.90;;;;;;4793725;29;20134;-93
2022/09/22 05:51:13;;;;;;;18.55;16.95;;;6.20;99.90;;;;;;4809269;29;20073;-92
2022/09/22 05:53:39;;;;;;;19.48;17.80;;;6.20;99.90;;;;;;4815683;29;20078;-92
2022/09/22 05:56:04;;;;;;;15.57;14.07;;;6.30;99.90;;;;;;4784917;29;20076;-93
2022/09/22 05:58:31;;;;;;;15.45;14.07;;;6.40;99.90;;;;;;4779572;29;20050;-92
2022/09/22 06:00:57;;;;;;;17.13;15.43;;;6.50;99.90;;;;;;4786061;29;20054;-93
2022/09/22 06:03:24;;;;;;;14.68;13.27;;;6.40;99.90;;;;;;4817249;29;20106;-93
2022/09/22 06:05:50;;;;;;;14.73;13.43;;;6.40;99.90;;;;;;4791059;29;20053;-93
2022/09/22 06:08:16;;;;;;;15.30;13.73;;;6.50;99.90;;;;;;4816170;29;20046;-92
2022/09/22 06:10:44;;;;;;;20.80;18.73;;;6.50;99.90;;;;;;4780785;29;20128;-93
2022/09/22 06:13:10;;;;;;;15.35;13.93;;;6.40;99.90;;;;;;4793208;29;20068;-93
2022/09/22 06:15:37;;;;;;;17.23;15.55;;;6.40;99.90;;;;;;4784330;29;20051;-93
2022/09/22 06:18:06;;;;;;;16.65;15.07;;;6.50;99.90;;;;;;4806249;29;20057;-94
2022/09/22 06:20:32;;;;;;;15.85;14.50;;;6.50;99.90;;;;;;4806385;29;20133;-92
2022/09/22 06:22:58;;;;;;;16.40;14.82;;;6.60;99.90;;;;;;4801113;29;20517;-92
2022/09/22 06:25:26;;;;;;;15.77;14.40;;;6.70;99.90;;;;;;4789190;29;20047;-92
2022/09/22 06:28:01;;;;;;;18.13;16.48;;;6.70;99.90;;;;;;4776786;29;20111;-92
2022/09/22 06:30:27;;;;;;;19.33;17.73;;;6.80;99.90;;;;;;4801119;29;20058;-92
2022/09/22 06:32:55;;;;;;;20.42;18.73;;;6.80;99.90;;;;;;4792919;29;20068;-93
2022/09/22 06:35:21;;;;;;;21.33;19.42;;;6.90;99.90;;;;;;4805602;29;20050;-93
2022/09/22 06:37:55;;;;;;;21.65;19.05;;;7.00;99.90;;;;;;4794199;29;20070;-92
2022/09/22 06:40:22;;;;;;;25.63;23.10;;;7.00;99.90;;;;;;4803199;29;20403;-93
2022/09/22 06:42:48;;;;;;;26.67;24.00;;;7.00;99.90;;;;;;4777837;29;20047;-92
2022/09/22 06:45:15;;;;;;;23.27;21.05;;;7.10;99.90;;;;;;4791322;29;20058;-92
2022/09/22 06:47:41;;;;;;;29.02;26.52;;;7.20;99.90;;;;;;4792538;29;20489;-93
2022/09/22 06:50:10;;;;;;;24.05;21.88;;;7.20;99.90;;;;;;4822486;29;20724;-93
2022/09/22 06:52:36;;;;;;;24.30;21.92;;;7.40;99.90;;;;;;4782476;29;20127;-93
2022/09/22 06:55:02;;;;;;;23.08;20.92;;;7.40;99.90;;;;;;4772660;29;20115;-93
2022/09/22 06:57:31;;;;;;;27.95;25.58;;;7.50;99.90;;;;;;4780728;29;20133;-92
2022/09/22 07:00:02;;;;;;;25.60;23.40;;;7.60;99.90;;;;;;4797868;29;20066;-93
2022/09/22 07:02:29;;;;;;;24.90;22.80;;;7.60;99.90;;;;;;4802694;29;20053;-93
2022/09/22 07:04:59;;;;;;;34.22;31.00;;;7.70;99.90;;;;;;4816907;29;20046;-92
2022/09/22 07:07:26;;;;;;;34.10;31.13;;;7.80;99.90;;;;;;4817675;29;20051;-93
2022/09/22 07:09:53;;;;;;;29.67;27.20;;;8.10;99.90;;;;;;4808317;29;20326;-92
2022/09/22 07:12:21;;;;;;;25.27;22.95;;;8.30;99.90;;;;;;4783171;29;20053;-93
2022/09/22 07:14:48;;;;;;;29.25;26.75;;;8.60;99.90;;;;;;4806355;29;20434;-92
2022/09/22 07:17:17;;;;;;;26.33;24.15;;;8.80;99.90;;;;;;4811612;29;20053;-92
2022/09/22 07:19:45;;;;;;;22.77;20.77;;;9.10;99.90;;;;;;4805693;29;20046;-91
2022/09/22 07:22:14;;;;;;;20.25;18.45;;;9.30;99.90;;;;;;4773221;29;20052;-94
2022/09/22 07:24:41;;;;;;;19.85;18.02;;;9.50;99.90;;;;;;4780579;29;20054;-93
2022/09/22 07:27:09;;;;;;;21.88;19.63;;;9.70;99.90;;;;;;4793756;29;20049;-94
2022/09/22 07:29:36;;;;;;;21.00;19.10;;;9.90;99.90;;;;;;4813939;29;20058;-94
2022/09/22 07:32:02;;;;;;;19.10;17.23;;;10.10;99.90;;;;;;4797105;29;20057;-94
2022/09/22 07:34:31;;;;;;;18.20;16.42;;;10.20;99.90;;;;;;4807777;29;20070;-94
2022/09/22 07:36:58;;;;;;;20.75;18.85;;;10.40;99.90;;;;;;4797923;29;20054;-94
2022/09/22 07:39:30;;;;;;;16.80;15.10;;;10.50;99.90;;;;;;4808612;29;20058;-95
2022/09/22 07:41:56;;;;;;;17.08;15.43;;;10.70;99.90;;;;;;4794507;29;20050;-94
2022/09/22 07:47:06;;;;;;;14.65;12.15;;;11.00;99.90;;;;;;4806048;29;20049;-93
2022/09/22 07:49:32;;;;;;;13.57;12.43;;;11.10;99.90;;;;;;4790676;29;20049;-93
2022/09/22 07:51:57;;;;;;;14.23;12.93;;;11.30;99.90;;;;;;4796109;29;20042;-95
2022/09/22 07:54:25;;;;;;;12.38;11.23;;;11.40;99.90;;;;;;4780906;29;20501;-94
2022/09/22 07:56:57;;;;;;;12.57;10.68;;;11.60;99.90;;;;;;4778513;29;20054;-94
2022/09/22 07:59:23;;;;;;;13.68;12.25;;;11.70;99.90;;;;;;4805422;29;20051;-94
2022/09/22 08:01:50;;;;;;;11.40;10.30;;;12.00;99.90;;;;;;4804489;29;20065;-94
2022/09/22 08:04:21;;;;;;;10.65;9.38;;;12.20;99.90;;;;;;4806399;29;20039;-94
2022/09/22 08:06:50;;;;;;;11.00;9.90;;;12.40;99.90;;;;;;4806268;29;20051;-95
2022/09/22 08:09:17;;;;;;;12.75;11.23;;;12.60;99.90;;;;;;4789943;29;20070;-94
2022/09/22 08:11:47;;;;;;;12.02;10.82;;;12.80;99.90;;;;;;4801934;29;20050;-94
2022/09/22 08:14:16;;;;;;;11.43;10.25;;;13.00;99.90;;;;;;4787881;29;20494;-94
2022/09/22 08:16:42;;;;;;;12.85;11.35;;;13.10;99.90;;;;;;4796367;29;20412;-94
2022/09/22 08:19:13;;;;;;;12.52;10.80;;;13.20;99.90;;;;;;4795032;29;20145;-93
2022/09/22 08:21:44;;;;;;;11.80;9.70;;;13.30;99.90;;;;;;4813915;29;20497;-95
2022/09/22 08:24:12;;;;;;;9.77;8.85;;;13.40;99.90;;;;;;4791675;29;20807;-94
2022/09/22 08:26:40;;;;;;;10.00;9.07;;;13.50;99.90;;;;;;4782721;29;20405;-94
2022/09/22 08:29:06;;;;;;;10.77;9.05;;;13.70;99.90;;;;;;4807494;29;20558;-94
2022/09/22 08:31:34;;;;;;;11.43;9.50;;;13.80;99.90;;;;;;4782215;29;20387;-94
2022/09/22 08:34:00;;;;;;;10.48;8.15;;;13.90;99.90;;;;;;4793891;29;20046;-94
2022/09/22 08:36:47;;;;;;;9.25;7.88;;;14.00;99.90;;;;;;4795727;29;20049;-95
2022/09/22 08:39:13;;;;;;;9.82;7.65;;;14.10;99.90;;;;;;4774913;29;20111;-95
2022/09/22 08:42:04;;;;;;;8.95;8.05;;;14.20;99.90;;;;;;4795315;29;20061;-94
2022/09/22 08:44:53;;;;;;;9.80;7.80;;;14.40;99.90;;;;;;4792804;29;20054;-94
2022/09/22 08:53:13;;;;;;;7.97;5.97;;;14.70;99.90;;;;;;4806174;29;20573;-93
2022/09/22 08:56:05;;;;;;;8.00;6.60;;;14.80;99.90;;;;;;4791951;29;20062;-94
2022/09/22 08:58:49;;;;;;;8.25;6.40;;;14.90;99.90;;;;;;4794634;29;20166;-95
2022/09/22 09:01:52;;;;;;;9.65;6.07;;;15.00;99.90;;;;;;4793345;29;20103;-93
2022/09/22 09:04:21;;;;;;;8.45;5.78;;;15.10;99.90;;;;;;4805609;29;20442;-94
2022/09/22 09:07:19;;;;;;;7.43;5.50;;;15.20;99.90;;;;;;4794200;29;20042;-94
2022/09/22 09:10:01;;;;;;;7.90;6.13;;;15.30;99.90;;;;;;4813188;29;20149;-94
2022/09/22 09:12:33;;;;;;;7.43;6.18;;;15.50;99.90;;;;;;4795007;29;20047;-94
2022/09/22 09:15:24;;;;;;;8.23;5.93;;;15.60;99.90;;;;;;4797880;29;20054;-94
2022/09/22 09:17:57;;;;;;;6.03;4.55;;;15.60;99.90;;;;;;4818090;29;20050;-94
2022/09/22 09:20:47;;;;;;;7.25;5.32;;;15.70;99.90;;;;;;4795631;29;20509;-95
2022/09/22 09:23:51;;;;;;;11.73;4.93;;;15.80;99.90;;;;;;4798007;29;20045;-94
2022/09/22 09:26:17;;;;;;;8.27;4.90;;;15.90;99.90;;;;;;4812962;29;20099;-93
2022/09/22 09:29:03;;;;;;;7.15;4.68;;;15.90;99.90;;;;;;4780471;29;20057;-94
2022/09/22 09:31:58;;;;;;;6.60;4.60;;;16.00;99.90;;;;;;4796278;29;20042;-94
2022/09/22 09:34:27;;;;;;;5.85;4.50;;;16.10;99.90;;;;;;4804628;29;20058;-94
2022/09/22 09:37:06;;;;;;;6.78;4.38;;;16.30;99.90;;;;;;4797753;29;20127;-94
2022/09/22 09:39:38;;;;;;;6.82;3.63;;;16.40;99.90;;;;;;4809048;29;20062;-94
2022/09/22 09:42:28;;;;;;;9.68;4.60;;;16.40;99.90;;;;;;4797201;29;20202;-94
2022/09/22 09:45:01;;;;;;;6.82;3.95;;;16.50;99.90;;;;;;4788818;29;20050;-94
2022/09/22 09:47:42;;;;;;;7.15;3.63;;;16.60;99.90;;;;;;4792548;29;20545;-94
2022/09/22 09:50:10;;;;;;;8.13;4.20;;;16.70;99.90;;;;;;4812770;29;20171;-95
2022/09/22 09:52:37;;;;;;;5.90;3.42;;;16.70;99.90;;;;;;4782683;29;20038;-93
2022/09/22 09:55:24;;;;;;;7.80;3.78;;;16.80;99.90;;;;;;4781905;29;20043;-93
2022/09/22 09:58:10;;;;;;;6.82;3.40;;;16.90;99.90;;;;;;4809518;29;20100;-94
2022/09/22 10:00:56;;;;;;;6.25;2.95;;;17.00;99.90;;;;;;4809638;29;20089;-94
2022/09/22 10:03:53;;;;;;;9.43;3.33;;;16.90;99.90;;;;;;4797916;29;20048;-94
2022/09/22 10:06:24;;;;;;;8.32;3.33;;;17.00;99.90;;;;;;4808102;29;20149;-93
2022/09/22 10:08:51;;;;;;;6.32;2.60;;;16.90;99.90;;;;;;4808103;29;20062;-94
2022/09/22 10:11:30;;;;;;;6.18;2.50;;;17.00;99.90;;;;;;4785124;29;20046;-94
2022/09/22 10:14:18;;;;;;;7.32;2.88;;;17.00;99.90;;;;;;4795303;29;20061;-94
2022/09/22 10:16:51;;;;;;;6.18;3.03;;;17.10;99.90;;;;;;4813989;29;20401;-93
2022/09/22 10:19:21;;;;;;;8.10;2.65;;;17.20;99.90;;;;;;4805191;29;20451;-94
2022/09/22 10:21:47;;;;;;;4.88;3.03;;;17.20;99.80;;;;;;4796474;29;20046;-94
2022/09/22 10:24:56;;;;;;;7.70;2.60;;;17.20;99.90;;;;;;4783638;29;20100;-94
2022/09/22 10:27:23;;;;;;;6.43;2.83;;;17.30;99.90;;;;;;4792024;29;20050;-94
2022/09/22 10:33:16;;;;;;;5.78;2.63;;;17.40;99.90;;;;;;4826795;29;20062;-94
2022/09/22 10:36:06;;;;;;;6.85;3.63;;;17.60;99.90;;;;;;4800773;29;20059;-93
2022/09/22 10:38:33;;;;;;;;;;;17.60;99.90;;;;;;4796640;29;20097;-94
2022/09/22 10:41:42;;;;;;;5.55;2.35;;;17.60;99.90;;;;;;4793734;29;20764;-93
2022/09/22 10:44:18;;;;;;;8.30;3.20;;;17.70;98.30;;;;;;4813687;29;20058;-94
2022/09/22 10:46:54;;;;;;;5.00;2.90;;;17.70;99.00;;;;;;4794234;29;20083;-94
2022/09/22 10:49:49;;;;;;;7.28;4.03;;;17.80;97.20;;;;;;4795309;29;20053;-93
2022/09/22 10:52:41;;;;;;;6.75;4.18;;;17.80;95.10;;;;;;4791505;29;20509;-93
2022/09/22 10:55:19;;;;;;;5.40;3.63;;;17.70;95.10;;;;;;4799380;29;20058;-94
2022/09/22 10:58:01;;;;;;;8.70;3.92;;;17.80;95.90;;;;;;4828058;29;20058;-93
2022/09/22 11:00:39;;;;;;;8.48;3.60;;;17.80;95.40;;;;;;4810188;29;20084;-94
2022/09/22 11:03:12;;;;;;;6.03;3.53;;;17.90;96.80;;;;;;4798813;29;20083;-94
2022/09/22 11:12:36;;;;;;;6.97;4.88;;;17.90;94.00;;;;;;4812336;29;20053;-95
2022/09/22 11:19:11;;;;;;;7.72;5.80;;;17.70;94.70;;;;;;4807878;29;20129;-94
2022/09/22 11:21:59;;;;;;;9.63;6.10;;;17.80;92.00;;;;;;4796176;29;20513;-94
2022/09/22 11:24:47;;;;;;;8.00;6.38;;;17.80;94.10;;;;;;4803540;29;20053;-94
2022/09/22 11:27:35;;;;;;;8.75;6.55;;;17.90;92.30;;;;;;4817579;29;20447;-94
2022/09/22 11:30:19;;;;;;;9.32;6.78;;;17.80;92.20;;;;;;4800002;29;20069;-93
2022/09/22 11:33:03;;;;;;;10.38;6.38;;;17.50;92.70;;;;;;4800129;29;20082;-94
2022/09/22 11:35:48;;;;;;;8.13;5.97;;;17.40;95.50;;;;;;4813565;29;20502;-92
2022/09/22 11:38:24;;;;;;;8.88;5.65;;;17.30;95.10;;;;;;4810097;29;20058;-93
2022/09/22 11:41:15;;;;;;;9.00;6.07;;;17.30;93.60;;;;;;4794231;29;20130;-94
2022/09/22 11:44:13;;;;;;;6.95;5.10;;;17.40;90.90;;;;;;4807091;29;20046;-94
2022/09/22 11:47:09;;;;;;;7.00;5.25;;;17.60;92.60;;;;;;4820033;29;20041;-94
2022/09/22 11:49:45;;;;;;;7.70;5.57;;;17.80;88.70;;;;;;4801836;29;20082;-94
2022/09/22 11:52:16;;;;;;;7.10;5.05;;;17.90;89.00;;;;;;4812502;29;20054;-94
2022/09/22 11:55:08;;;;;;;7.45;5.38;;;18.00;89.40;;;;;;4814985;29;20110;-94
2022/09/22 11:57:39;;;;;;;7.55;5.72;;;18.20;89.50;;;;;;4827109;29;20134;-94
2022/09/22 12:00:17;;;;;;;7.75;6.80;;;18.30;90.20;;;;;;4810582;29;20503;-93
2022/09/22 12:02:55;;;;;;;7.68;6.70;;;18.40;90.60;;;;;;4814505;29;20405;-94
2022/09/22 12:05:34;;;;;;;8.68;5.78;;;18.40;91.70;;;;;;4794580;29;21253;-94
2022/09/22 12:08:15;;;;;;;7.57;5.80;;;18.40;91.30;;;;;;4824931;29;20042;-94
2022/09/22 12:10:46;;;;;;;9.85;5.22;;;18.50;92.10;;;;;;4795057;29;20053;-95
2022/09/22 12:13:17;;;;;;;7.90;6.32;;;18.50;92.20;;;;;;4797188;29;20110;-94
2022/09/22 12:15:45;;;;;;;9.75;6.05;;;18.40;87.10;;;;;;4810978;29;20737;-94
2022/09/22 12:18:50;;;;;;;9.55;6.38;;;18.30;88.30;;;;;;4810228;29;20050;-94
2022/09/22 12:21:19;;;;;;;8.30;5.80;;;18.30;91.40;;;;;;4820068;29;20058;-94
2022/09/22 12:23:49;;;;;;;9.38;6.15;;;18.20;90.70;;;;;;4795826;29;20042;-93
2022/09/22 12:29:29;;;;;;;9.25;5.78;;;18.30;92.90;;;;;;4811307;29;19925;-94
2022/09/22 12:32:16;;;;;;;8.57;5.35;;;18.20;89.50;;;;;;4791967;29;20046;-94
2022/09/22 12:34:43;;;;;;;8.18;5.30;;;18.20;88.70;;;;;;4790510;29;20133;-94
2022/09/22 12:37:24;;;;;;;8.07;5.20;;;18.20;90.30;;;;;;4821370;29;20052;-94
2022/09/22 12:39:50;;;;;;;7.80;5.18;;;18.40;89.90;;;;;;4798954;29;20049;-94
2022/09/22 12:42:20;;;;;;;7.72;5.15;;;18.50;90.00;;;;;;4780414;29;20377;-94
2022/09/22 12:44:57;;;;;;;6.97;4.75;;;18.50;90.20;;;;;;4820569;29;20050;-94
2022/09/22 12:47:25;;;;;;;7.30;5.22;;;18.50;90.30;;;;;;4797419;29;20042;-93
2022/09/22 12:49:58;;;;;;;9.00;4.60;;;18.50;89.90;;;;;;4800541;29;20534;-93
2022/09/22 12:52:38;;;;;;;7.88;3.95;;;18.50;90.50;;;;;;4806446;29;20171;-94
2022/09/22 12:55:40;;;;;;;6.97;4.25;;;18.50;88.10;;;;;;4797204;29;20062;-93
2022/09/22 12:58:29;;;;;;;9.38;4.57;;;18.50;86.80;;;;;;4811293;29;20042;-94
2022/09/22 13:01:28;;;;;;;8.27;4.45;;;18.50;86.50;;;;;;4827818;29;20105;-94
2022/09/22 13:04:15;;;;;;;8.40;4.33;;;18.40;83.50;;;;;;4811358;29;20078;-93
2022/09/22 13:06:54;;;;;;;6.40;4.07;;;18.40;86.30;;;;;;4814974;29;20348;-93
2022/09/22 13:09:24;;;;;;;7.07;4.18;;;18.30;87.60;;;;;;4813847;29;20056;-93
2022/09/22 13:12:10;;;;;;;7.47;4.40;;;18.20;89.30;;;;;;4799238;29;20057;-93
2022/09/22 13:15:20;;;;;;;6.72;4.18;;;18.10;86.80;;;;;;4804099;29;20042;-93
2022/09/22 13:18:39;;;;;;;7.82;4.10;;;18.10;90.90;;;;;;4795782;29;20093;-93
2022/09/22 13:24:27;;;;;;;8.90;4.38;;;18.20;83.80;;;;;;4806820;29;20047;-93
2022/09/22 13:27:03;;;;;;;5.80;3.70;;;18.10;89.30;;;;;;4781483;29;20667;-94
2022/09/22 13:29:45;;;;;;;7.40;4.18;;;18.20;89.80;;;;;;4799362;29;20105;-94
2022/09/22 13:32:20;;;;;;;8.75;3.90;;;18.30;88.40;;;;;;4783324;29;20054;-93
2022/09/22 13:34:46;;;;;;;6.88;3.33;;;18.40;85.40;;;;;;4794829;29;21299;-94
2022/09/22 13:37:21;;;;;;;8.00;3.55;;;18.30;87.10;;;;;;4785416;29;20057;-93
2022/09/22 13:39:50;;;;;;;6.28;2.80;;;18.40;87.10;;;;;;4811467;29;20050;-94
2022/09/22 13:42:31;;;;;;;5.78;2.90;;;18.50;82.60;;;;;;4815633;29;20049;-94
2022/09/22 13:45:15;;;;;;;6.05;2.80;;;18.50;83.50;;;;;;4809995;29;20053;-93
2022/09/22 13:47:45;;;;;;;5.00;2.55;;;18.50;83.10;;;;;;4799845;29;20051;-94
2022/09/22 13:50:36;;;;;;;8.35;3.60;;;18.50;84.90;;;;;;4794379;29;20050;-94
2022/09/22 13:53:02;;;;;;;6.30;3.20;;;18.40;83.10;;;;;;4812739;29;20049;-93
2022/09/22 13:55:36;;;;;;;5.53;3.22;;;18.40;84.50;;;;;;4781121;29;20051;-93
2022/09/22 13:58:02;;;;;;;6.68;3.10;;;18.40;87.40;;;;;;4794501;29;20079;-94
2022/09/22 14:00:41;;;;;;;7.25;3.75;;;18.40;85.20;;;;;;4799535;29;20047;-93
2022/09/22 14:03:45;;;;;;;5.50;3.40;;;18.40;85.10;;;;;;4801329;29;20056;-94
2022/09/22 14:06:18;;;;;;;7.28;3.38;;;18.30;83.80;;;;;;4800793;29;20055;-94
2022/09/22 14:08:45;;;;;;;4.97;2.97;;;18.10;87.00;;;;;;4803620;29;20047;-96
2022/09/22 14:11:33;;;;;;;5.57;3.08;;;18.00;87.00;;;;;;4799417;29;20084;-96
2022/09/22 14:14:01;;;;;;;6.03;3.05;;;18.00;90.10;;;;;;4796808;29;20506;-94
2022/09/22 14:16:27;;;;;;;6.50;2.80;;;18.00;91.10;;;;;;4785735;29;20138;-96
2022/09/22 14:19:02;;;;;;;7.50;2.83;;;18.00;90.10;;;;;;4817606;29;20054;-95